Time;durP1;ratioP1;P1;durP2;ratioP2;P2;SDS_P1;SDS_P2;PMS_P1;PMS_P2;Temp;Humidity;BMP_temperature;BMP_pressure;BME280_temperature;BME280_humidity;BME280_pressure;Samples;Min_cycle;Max_cycle;Signal;HPM_P1;HPM_P2
2021/01/12 00:00:38;;;;;;;49.58;21.33;;;;;;;;;;4994607;28;20052;-59
2021/01/12 00:03:04;;;;;;;45.97;20.90;;;;;;;;;;4982833;28;20136;-59
2021/01/12 00:05:30;;;;;;;43.63;19.35;;;;;;;;;;4979699;28;20648;-59
2021/01/12 00:07:56;;;;;;;44.92;19.08;;;;;;;;;;4973821;28;20070;-59
2021/01/12 00:10:23;;;;;;;45.58;19.23;;;;;;;;;;4967804;28;20037;-59
2021/01/12 00:12:49;;;;;;;35.20;15.68;;;;;;;;;;4978850;28;20543;-59
2021/01/12 00:15:15;;;;;;;45.28;17.75;;;;;;;;;;4988809;28;20582;-60
2021/01/12 00:17:41;;;;;;;38.58;17.08;;;;;;;;;;4980410;28;20046;-59
2021/01/12 00:20:08;;;;;;;42.63;18.13;;;;;;;;;;4982588;28;20060;-58
2021/01/12 00:22:34;;;;;;;43.50;18.58;;;;;;;;;;4979214;28;20046;-59
2021/01/12 00:25:00;;;;;;;35.17;16.30;;;;;;;;;;4978236;28;20038;-59
2021/01/12 00:27:26;;;;;;;40.42;17.35;;;;;;;;;;4976377;28;21725;-59
2021/01/12 00:29:52;;;;;;;38.75;16.80;;;;;;;;;;4974466;28;20052;-58
2021/01/12 00:32:19;;;;;;;36.55;16.25;;;;;;;;;;4978486;28;20092;-59
2021/01/12 00:34:45;;;;;;;37.92;17.23;;;;;;;;;;4987736;28;20039;-59
2021/01/12 00:37:11;;;;;;;37.22;17.15;;;;;;;;;;4984703;28;20053;-58
2021/01/12 00:39:37;;;;;;;34.47;16.55;;;;;;;;;;4981275;28;20042;-59
2021/01/12 00:42:04;;;;;;;40.70;17.30;;;;;;;;;;4986388;28;20042;-59
2021/01/12 00:44:30;;;;;;;40.03;16.77;;;;;;;;;;4979172;28;20108;-59
2021/01/12 00:46:56;;;;;;;34.90;15.88;;;;;;;;;;4985057;28;20054;-59
2021/01/12 00:49:23;;;;;;;34.40;15.85;;;;;;;;;;4980395;28;20042;-59
2021/01/12 00:51:49;;;;;;;38.70;16.70;;;;;;;;;;4978274;28;20042;-59
2021/01/12 00:54:19;;;;;;;37.85;17.10;;;;;;;;;;4980497;28;20041;-59
2021/01/12 00:56:45;;;;;;;36.28;16.33;;;;;;;;;;4979625;28;20038;-58
2021/01/12 00:59:11;;;;;;;40.50;17.17;;;;;;;;;;4983202;28;20037;-59
2021/01/12 01:01:38;;;;;;;39.42;17.08;;;;;;;;;;4979877;28;20334;-58
2021/01/12 01:04:05;;;;;;;36.55;15.70;;;;;;;;;;4986872;28;20093;-59
2021/01/12 01:06:30;;;;;;;38.42;16.50;;;;;;;;;;4992213;28;20041;-58
2021/01/12 01:08:57;;;;;;;34.45;15.48;;;;;;;;;;4980292;28;20035;-59
2021/01/12 01:11:22;;;;;;;37.70;15.45;;;;;;;;;;4982597;28;20041;-59
2021/01/12 01:13:49;;;;;;;34.47;15.45;;;;;;;;;;4987465;28;20522;-59
2021/01/12 01:16:15;;;;;;;31.15;14.75;;;;;;;;;;4983480;28;20042;-59
2021/01/12 01:18:41;;;;;;;37.10;15.63;;;;;;;;;;4985689;28;20550;-60
2021/01/12 01:21:07;;;;;;;35.42;14.85;;;;;;;;;;4983270;28;20030;-59
2021/01/12 01:23:33;;;;;;;35.63;15.43;;;;;;;;;;4986847;28;20049;-59
2021/01/12 01:25:59;;;;;;;34.90;14.63;;;;;;;;;;4989442;28;20030;-60
2021/01/12 01:28:25;;;;;;;37.38;15.77;;;;;;;;;;4985151;28;20034;-59
2021/01/12 01:30:53;;;;;;;36.15;15.30;;;;;;;;;;4980996;28;20034;-59
2021/01/12 01:33:19;;;;;;;31.70;14.75;;;;;;;;;;4988212;28;20046;-60
2021/01/12 01:35:45;;;;;;;34.35;15.73;;;;;;;;;;4985775;28;20038;-59
2021/01/12 01:38:11;;;;;;;35.70;14.52;;;;;;;;;;4986280;28;20093;-59
2021/01/12 01:40:37;;;;;;;39.42;14.85;;;9.70;64.50;;;;;;4986164;28;20168;-59
2021/01/12 01:43:03;;;;;;;39.80;14.45;;;;;;;;;;4987726;28;20045;-59
2021/01/12 01:45:30;;;;;;;28.77;12.77;;;;;;;;;;4987618;28;20039;-60
2021/01/12 01:47:56;;;;;;;29.58;13.18;;;;;;;;;;4991234;28;20494;-59
2021/01/12 01:50:23;;;;;;;27.15;12.45;;;;;;;;;;4991181;28;20081;-59
2021/01/12 01:52:50;;;;;;;26.23;12.85;;;;;;;;;;4987400;28;20045;-59
2021/01/12 01:55:16;;;;;;;31.15;12.25;;;;;;;;;;4990059;28;20049;-58
2021/01/12 01:57:42;;;;;;;26.30;12.38;;;;;;;;;;4982741;28;20702;-59
2021/01/12 02:00:08;;;;;;;25.48;12.20;;;;;;;;;;4986465;28;20050;-59
2021/01/12 02:02:37;;;;;;;22.50;11.02;;;;;;;;;;4986083;28;20042;-59
2021/01/12 02:05:04;;;;;;;25.67;11.50;;;;;;;;;;4982615;28;20944;-60
2021/01/12 02:07:30;;;;;;;31.23;13.30;;;;;;;;;;4992551;28;20069;-59
2021/01/12 02:09:58;;;;;;;26.77;12.43;;;;;;;;;;4981568;28;21834;-58
2021/01/12 02:12:28;;;;;;;29.05;12.68;;;;;;;;;;4982241;28;20042;-59
2021/01/12 02:14:54;;;;;;;30.20;12.95;;;;;;;;;;4982740;28;20476;-59
2021/01/12 02:17:20;;;;;;;32.00;13.85;;;;;;;;;;4985462;28;20050;-59
2021/01/12 02:19:46;;;;;;;30.00;14.13;;;;;;;;;;4978673;28;20033;-59
2021/01/12 02:22:19;;;;;;;31.88;14.43;;;;;;;;;;4985313;28;20042;-59
2021/01/12 02:24:45;;;;;;;32.45;14.90;;;;;;;;;;4986855;28;20499;-59
2021/01/12 02:27:11;;;;;;;30.73;12.88;;;;;;;;;;4985040;28;20042;-59
2021/01/12 02:29:37;;;;;;;33.97;14.23;;;;;;;;;;4978017;28;20466;-59
2021/01/12 02:32:03;;;;;;;29.27;12.65;;;;;;;;;;4983006;28;21769;-58
2021/01/12 02:34:30;;;;;;;31.60;13.57;;;;;;;;;;4983057;28;20045;-58
2021/01/12 02:36:56;;;;;;;35.25;14.70;;;;;;;;;;4986016;28;20613;-59
2021/01/12 02:39:22;;;;;;;31.10;13.48;;;;;;;;;;4983705;28;20121;-59
2021/01/12 02:41:48;;;;;;;28.27;13.05;;;;;;;;;;4982351;28;20038;-58
2021/01/12 02:44:24;;;;;;;33.45;13.05;;;;;;;;;;4981837;28;20034;-59
2021/01/12 02:46:52;;;;;;;27.27;13.05;;;;;;;;;;4975442;28;20049;-58
2021/01/12 02:49:18;;;;;;;29.80;14.30;;;;;;;;;;4981065;28;20539;-59
2021/01/12 02:51:44;;;;;;;32.67;13.30;;;;;;;;;;4987345;28;20044;-59
2021/01/12 02:54:10;;;;;;;33.25;13.50;;;;;;;;;;4986343;28;20037;-59
2021/01/12 02:56:36;;;;;;;29.67;13.68;;;;;;;;;;4984667;28;20092;-59
2021/01/12 02:59:02;;;;;;;32.17;13.75;;;;;;;;;;4982455;28;20034;-58
2021/01/12 03:01:28;;;;;;;36.22;14.52;;;;;;;;;;4983846;28;20129;-59
2021/01/12 03:03:54;;;;;;;36.78;14.45;;;;;;;;;;4985776;28;20046;-58
2021/01/12 03:06:22;;;;;;;33.70;14.65;;;;;;;;;;4984581;28;20654;-59
2021/01/12 03:08:48;;;;;;;36.58;14.75;;;;;;;;;;4979981;28;20051;-59
2021/01/12 03:11:14;;;;;;;36.78;15.75;;;;;;;;;;4982723;28;20044;-58
2021/01/12 03:13:40;;;;;;;33.47;13.98;;;;;;;;;;4982844;28;20037;-59
2021/01/12 03:16:06;;;;;;;30.88;13.55;;;;;;;;;;4980067;28;20324;-59
2021/01/12 03:18:32;;;;;;;27.63;12.50;;;;;;;;;;4977246;28;20065;-59
2021/01/12 03:20:59;;;;;;;33.20;12.50;;;;;;;;;;4985559;28;20107;-59
2021/01/12 03:23:25;;;;;;;30.27;12.75;;;;;;;;;;4978824;28;20042;-59
2021/01/12 03:25:51;;;;;;;27.75;12.27;;;;;;;;;;4979068;28;20785;-59
2021/01/12 03:28:17;;;;;;;31.20;12.60;;;;;;;;;;4978568;28;20045;-59
2021/01/12 03:30:43;;;;;;;29.27;12.30;;;;;;;;;;4987964;28;20034;-59
2021/01/12 03:33:09;;;;;;;34.53;13.50;;;;;;;;;;4985943;28;20931;-59
2021/01/12 03:35:35;;;;;;;32.50;13.00;;;;;;;;;;4984120;28;20037;-58
2021/01/12 03:38:01;;;;;;;31.90;13.25;;;;;;;;;;4975190;28;20042;-59
2021/01/12 03:40:26;;;;;;;28.52;12.48;;;;;;;;;;4980166;28;20045;-60
2021/01/12 03:42:53;;;;;;;31.08;13.05;;;;;;;;;;4979801;28;20042;-60
2021/01/12 03:45:18;;;;;;;30.48;12.75;;;;;;;;;;4982829;28;20046;-60
2021/01/12 03:47:44;;;;;;;35.25;12.68;;;;;;;;;;4979143;28;20096;-60
2021/01/12 03:50:10;;;;;;;26.42;11.10;;;;;;;;;;4982102;28;20538;-59
2021/01/12 03:52:36;;;;;;;31.23;12.23;;;;;;;;;;4981116;28;20133;-60
2021/01/12 03:55:03;;;;;;;28.25;11.95;;;;;;;;;;4982981;28;20042;-60
2021/01/12 03:57:29;;;;;;;30.23;12.63;;;;;;;;;;4985012;28;20042;-59
2021/01/12 03:59:55;;;;;;;33.17;12.65;;;;;;;;;;4980977;28;20045;-60
2021/01/12 04:02:21;;;;;;;31.25;11.90;;;;;;;;;;4980050;28;20122;-60
2021/01/12 04:04:47;;;;;;;28.35;12.35;;;;;;;;;;4980335;28;20069;-59
2021/01/12 04:07:13;;;;;;;31.40;12.82;;;;;;;;;;4984536;28;20133;-60
2021/01/12 04:09:42;;;;;;;29.33;12.23;;;;;;;;;;4980805;28;20058;-61
2021/01/12 04:12:08;;;;;;;26.33;10.77;;;;;;;;;;4984645;28;20534;-60
2021/01/12 04:14:34;;;;;;;30.33;12.35;;;;;;;;;;4981315;28;20042;-59
2021/01/12 04:17:00;;;;;;;32.03;11.93;;;;;;;;;;4978116;28;20088;-59
2021/01/12 04:19:26;;;;;;;26.08;11.75;;;;;;;;;;4976991;28;20412;-60
2021/01/12 04:21:52;;;;;;;30.73;11.85;;;;;;;;;;4982172;28;20129;-60
2021/01/12 04:24:18;;;;;;;30.65;12.02;;;;;;;;;;4983002;28;20030;-60
2021/01/12 04:26:44;;;;;;;24.63;10.95;;;;;;;;;;4978197;28;20531;-60
2021/01/12 04:29:10;;;;;;;26.63;10.77;;;;;;;;;;4982663;28;20042;-60
2021/01/12 04:31:36;;;;;;;27.92;11.00;;;;;;;;;;4977159;28;20428;-60
2021/01/12 04:34:02;;;;;;;22.75;10.13;;;;;;;;;;4979263;28;20128;-60
2021/01/12 04:36:30;;;;;;;22.70;9.43;;;;;;;;;;4978887;28;20040;-59
2021/01/12 04:38:56;;;;;;;22.85;9.27;;;;;;;;;;4977493;28;20547;-60
2021/01/12 04:41:23;;;;;;;19.50;8.20;;;;;;;;;;4980009;28;20030;-60
2021/01/12 04:43:49;;;;;;;16.38;8.32;;;;;;;;;;4979666;28;20503;-60
2021/01/12 04:46:15;;;;;;;17.67;8.35;;;;;;;;;;4984506;28;20029;-60
2021/01/12 04:48:41;;;;;;;21.13;9.13;;;;;;;;;;4979162;28;20037;-60
2021/01/12 04:51:09;;;;;;;16.50;8.55;;;;;;;;;;4983894;28;20426;-60
2021/01/12 04:53:39;;;;;;;21.10;8.25;;;;;;;;;;4985130;28;20037;-60
2021/01/12 04:56:05;;;;;;;17.17;8.35;;;;;;;;;;4983485;28;20038;-60
2021/01/12 04:58:38;;;;;;;18.88;8.15;;;;;;;;;;4979647;28;20040;-60
2021/01/12 05:01:08;;;;;;;15.73;7.85;;;;;;;;;;4981106;28;20450;-59
2021/01/12 05:03:34;;;;;;;16.98;8.02;;;;;;;;;;4983364;28;20515;-60
2021/01/12 05:06:01;;;;;;;19.13;7.88;;;;;;;;;;4984604;28;20044;-60
2021/01/12 05:08:28;;;;;;;17.00;6.93;;;;;;;;;;4982295;28;20755;-60
2021/01/12 05:10:57;;;;;;;15.15;6.72;;;;;;;;;;4980318;28;20426;-60
2021/01/12 05:13:24;;;;;;;14.85;6.50;;;;;;;;;;4980922;28;20455;-60
2021/01/12 05:15:50;;;;;;;15.18;6.40;;;;;;;;;;4981171;28;20563;-60
2021/01/12 05:18:19;;;;;;;15.35;6.13;;;;;;;;;;4979584;28;20393;-60
2021/01/12 05:20:45;;;;;;;12.18;5.47;;;;;;;;;;4978557;28;20054;-60
2021/01/12 05:23:13;;;;;;;12.38;5.70;;;;;;;;;;4985048;28;20073;-60
2021/01/12 05:25:40;;;;;;;10.00;5.13;;;;;;;;;;4978221;28;20042;-60
2021/01/12 05:28:07;;;;;;;22.13;5.90;;;;;;;;;;4983416;28;20049;-60
2021/01/12 05:30:33;;;;;;;16.45;6.35;;;;;;;;;;4979520;28;20053;-60
2021/01/12 05:33:00;;;;;;;14.40;5.43;;;;;;;;;;4979383;28;20085;-60
2021/01/12 05:35:29;;;;;;;11.52;5.13;;;;;;;;;;4978077;28;20063;-60
2021/01/12 05:38:00;;;;;;;11.75;4.90;;;;;;;;;;4979687;28;20038;-60
2021/01/12 05:40:28;;;;;;;9.80;4.15;;;;;;;;;;4982776;28;20042;-64
2021/01/12 05:43:03;;;;;;;10.85;4.57;;;;;;;;;;4985635;28;20042;-61
2021/01/12 05:45:39;;;;;;;12.18;4.53;;;;;;;;;;4978344;28;20997;-60
2021/01/12 05:48:09;;;;;;;9.57;4.10;;;;;;;;;;4982885;28;20666;-60
2021/01/12 05:50:35;;;;;;;10.80;4.30;;;;;;;;;;4981822;28;20042;-60
2021/01/12 05:53:14;;;;;;;6.65;1.98;;;;;;;;;;4979929;28;20037;-60
2021/01/12 05:55:41;;;;;;;10.43;1.88;;;;;;;;;;4979098;28;20039;-60
2021/01/12 05:58:12;;;;;;;5.57;1.38;;;;;;;;;;4979055;28;20078;-60
2021/01/12 06:00:41;;;;;;;9.48;1.30;;;;;;;;;;4977851;28;20038;-60
2021/01/12 06:03:08;;;;;;;6.38;1.65;;;;;;;;;;4980856;28;20167;-60
2021/01/12 06:05:34;;;;;;;8.10;1.40;;;;;;;;;;4979669;28;20056;-60
2021/01/12 06:08:00;;;;;;;7.57;1.48;;;;;;;;;;4983836;28;20146;-64
2021/01/12 06:10:26;;;;;;;4.57;1.40;;;;;;;;;;4981057;28;20041;-64
2021/01/12 06:12:56;;;;;;;6.00;1.42;;;;;;;;;;4980756;28;20442;-61
2021/01/12 06:15:26;;;;;;;6.97;1.70;;;;;;;;;;4985913;28;20404;-60
2021/01/12 06:18:03;;;;;;;7.30;1.67;;;;;;;;;;4983654;28;20077;-60
2021/01/12 06:20:33;;;;;;;9.43;1.85;;;;;;;;;;4978992;28;20060;-60
2021/01/12 06:23:07;;;;;;;21.42;1.98;;;;;;;;;;4983343;28;20413;-60
2021/01/12 06:25:34;;;;;;;11.70;1.60;;;;;;;;;;4987354;28;20042;-60
2021/01/12 06:28:00;;;;;;;13.20;1.55;;;;;;;;;;4978334;28;20045;-59
2021/01/12 06:30:26;;;;;;;14.73;1.80;;;;;;;;;;4988700;28;20038;-60
2021/01/12 06:32:53;;;;;;;17.10;2.50;;;;;;;;;;4988030;28;20038;-60
2021/01/12 06:35:20;;;;;;;9.23;1.48;;;;;;;;;;4988244;28;20026;-60
2021/01/12 06:37:50;;;;;;;9.88;1.48;;;;;;;;;;4980371;28;20053;-60
2021/01/12 06:40:18;;;;;;;12.48;1.73;;;;;;;;;;4992189;28;20037;-60
2021/01/12 06:42:44;;;;;;;14.88;2.10;;;;;;;;;;4987480;28;20049;-61
2021/01/12 06:45:10;;;;;;;21.45;2.00;;;;;;;;;;4988451;28;20041;-61
2021/01/12 06:47:37;;;;;;;23.77;2.50;;;;;;;;;;4987065;28;20044;-60
2021/01/12 06:50:03;;;;;;;22.50;2.55;;;;;;;;;;4985786;28;20072;-60
2021/01/12 06:52:29;;;;;;;15.95;2.28;;;;;;;;;;4985741;28;20466;-59
2021/01/12 06:55:05;;;;;;;17.30;2.33;;;;;;;;;;4980578;28;20042;-60
2021/01/12 06:57:32;;;;;;;18.35;2.55;;;;;;;;;;4980065;28;20050;-60
2021/01/12 06:59:58;;;;;;;18.58;2.50;;;;;;;;;;4989252;28;20041;-60
2021/01/12 07:02:29;;;;;;;26.23;2.80;;;;;;;;;;4980995;28;20033;-60
2021/01/12 07:05:03;;;;;;;17.67;2.03;;;;;;;;;;4979312;28;20050;-60
2021/01/12 07:07:30;;;;;;;18.55;3.22;;;;;;;;;;4983076;28;20034;-60
2021/01/12 07:09:57;;;;;;;15.90;2.25;;;;;;;;;;4982604;28;20049;-60
2021/01/12 07:12:24;;;;;;;16.10;2.28;;;;;;;;;;4981934;28;20042;-60
2021/01/12 07:14:51;;;;;;;13.38;1.80;;;;;;;;;;4988815;28;20046;-60
2021/01/12 07:17:33;;;;;;;17.25;2.00;;;;;;;;;;4985011;28;20045;-59
2021/01/12 07:20:02;;;;;;;17.13;2.80;;;;;;;;;;4992071;28;20041;-59
2021/01/12 07:22:31;;;;;;;19.75;1.80;;;;;;;;;;4985972;28;20853;-59
2021/01/12 07:24:57;;;;;;;14.80;2.55;;;;;;;;;;4988829;28;20506;-60
2021/01/12 07:27:23;;;;;;;14.98;2.10;;;;;;;;;;4990431;28;20055;-60
2021/01/12 07:29:51;;;;;;;29.38;2.35;;;;;;;;;;4986826;28;20139;-60
2021/01/12 07:32:36;;;;;;;17.48;2.15;;;;;;;;;;4985758;28;20041;-60
2021/01/12 07:35:10;;;;;;;24.75;2.95;;;;;;;;;;4989736;28;20085;-64
2021/01/12 07:37:38;;;;;;;17.10;2.13;;;;;;;;;;4983609;28;20099;-60
2021/01/12 07:40:04;;;;;;;20.70;2.42;;;;;;;;;;4986408;28;20065;-60
2021/01/12 07:42:30;;;;;;;22.77;2.53;;;;;;;;;;4984965;28;20080;-60
2021/01/12 07:44:56;;;;;;;10.57;1.95;;;;;;;;;;4989628;28;20141;-59
2021/01/12 07:47:23;;;;;;;17.35;2.08;;;;;;;;;;4990718;28;20038;-60
2021/01/12 07:49:49;;;;;;;22.58;2.45;;;;;;;;;;4989832;28;20034;-59
2021/01/12 07:52:17;;;;;;;22.63;2.20;;;;;;;;;;4986799;28;20072;-60
2021/01/12 07:54:43;;;;;;;15.75;2.30;;;;;;;;;;4987319;28;20128;-60
2021/01/12 07:57:10;;;;;;;13.98;2.50;;;;;;;;;;4990862;28;20161;-60
2021/01/12 07:59:37;;;;;;;21.70;2.53;;;;;;;;;;4989036;28;20779;-60
2021/01/12 08:02:04;;;;;;;11.57;2.00;;;;;;;;;;4983753;28;20034;-60
2021/01/12 08:04:31;;;;;;;18.65;2.58;;;;;;;;;;4984579;28;20543;-60
2021/01/12 08:06:57;;;;;;;21.60;2.70;;;;;;;;;;4988635;28;20045;-60
2021/01/12 08:09:24;;;;;;;13.38;2.15;;;;;;;;;;4988557;28;20045;-60
2021/01/12 08:11:51;;;;;;;20.40;2.28;;;;;;;;;;4985130;28;20030;-60
2021/01/12 08:14:21;;;;;;;18.02;2.22;;;;;;;;;;4988815;28;20395;-60
2021/01/12 08:16:48;;;;;;;17.05;2.40;;;;;;;;;;4991504;28;20060;-60
2021/01/12 08:19:19;;;;;;;20.42;2.10;;;;;;;;;;4989007;28;20169;-60
2021/01/12 08:21:45;;;;;;;25.45;2.25;;;;;;;;;;4990314;28;20046;-60
2021/01/12 08:24:11;;;;;;;13.07;2.25;;;;;;;;;;4987987;28;20605;-60
2021/01/12 08:26:44;;;;;;;26.05;2.58;;;;;;;;;;4990855;28;20041;-60
2021/01/12 08:29:10;;;;;;;22.25;3.13;;;;;;;;;;4985813;28;20049;-60
2021/01/12 08:31:42;;;;;;;14.73;2.67;;;;;;;;;;4987319;28;20500;-60
2021/01/12 08:34:09;;;;;;;18.63;2.80;;;;;;;;;;4993545;28;20037;-60
2021/01/12 08:36:36;;;;;;;21.08;3.50;;;;;;;;;;4999061;28;20120;-60
2021/01/12 08:39:02;;;;;;;16.63;3.45;;;;;;;;;;4990826;28;20041;-60
2021/01/12 08:41:29;;;;;;;26.75;4.10;;;;;;;;;;4992289;28;20065;-60
2021/01/12 08:43:58;;;;;;;27.73;4.25;;;;;;;;;;4992506;28;20053;-59
2021/01/12 08:46:28;;;;;;;25.55;4.07;;;;;;;;;;4995125;28;20255;-60
2021/01/12 08:48:54;;;;;;;20.40;4.00;;;;;;;;;;4992591;28;20172;-60
2021/01/12 08:51:20;;;;;;;20.80;4.18;;;;;;;;;;4987530;28;20734;-60
2021/01/12 08:53:46;;;;;;;28.40;4.00;;;;;;;;;;4991646;28;20040;-61
2021/01/12 08:56:13;;;;;;;29.40;4.25;;;;;;;;;;4989276;28;20454;-60
2021/01/12 08:58:39;;;;;;;17.60;3.45;;;;;;;;;;4985787;28;20402;-60
2021/01/12 09:01:05;;;;;;;27.08;3.75;;;;;;;;;;4992745;28;20042;-60
2021/01/12 09:03:32;;;;;;;27.80;4.05;;;;;;;;;;4987469;28;23980;-60
2021/01/12 09:05:58;;;;;;;19.85;3.30;;;;;;;;;;4988435;28;20096;-60
2021/01/12 09:08:25;;;;;;;22.15;3.53;;;;;;;;;;4992935;28;20068;-60
2021/01/12 09:10:51;;;;;;;21.52;3.45;;;;;;;;;;4988229;28;20318;-60
2021/01/12 09:13:25;;;;;;;25.65;3.60;;;;;;;;;;4993507;28;20036;-61
2021/01/12 09:15:51;;;;;;;19.55;3.05;;;;;;;;;;4992953;28;20214;-60
2021/01/12 09:18:25;;;;;;;20.73;3.15;;;;;;;;;;4993705;28;20152;-60
2021/01/12 09:20:59;;;;;;;20.70;2.88;;;;;;;;;;4993073;28;20446;-60
2021/01/12 09:23:25;;;;;;;19.85;3.00;;;;;;;;;;4989918;28;20338;-60
2021/01/12 09:25:52;;;;;;;26.02;2.83;;;;;;;;;;4993567;28;20388;-60
2021/01/12 09:28:19;;;;;;;18.90;2.53;;;;;;;;;;4992133;28;20052;-60
2021/01/12 09:30:46;;;;;;;17.92;2.63;;;;;;;;;;4989356;28;20289;-60
2021/01/12 09:33:23;;;;;;;13.75;2.90;;;;;;;;;;4990190;28;20034;-61
2021/01/12 09:35:49;;;;;;;23.35;2.75;;;;;;;;;;4993371;28;20091;-60
2021/01/12 09:38:15;;;;;;;23.00;2.80;;;;;;;;;;4987141;28;20080;-60
2021/01/12 09:40:41;;;;;;;13.73;2.35;;;;;;;;;;4990467;28;20030;-60
2021/01/12 09:43:07;;;;;;;22.58;2.08;;;;;;;;;;4990263;28;20578;-60
2021/01/12 09:45:34;;;;;;;20.80;2.50;;;;;;;;;;4991748;28;20061;-60
2021/01/12 09:48:02;;;;;;;20.40;2.33;;;;;;;;;;4988969;28;20038;-61
2021/01/12 09:50:28;;;;;;;17.05;2.90;;;;;;;;;;4994354;28;20555;-60
2021/01/12 09:52:53;;;;;;;19.48;2.95;;;;;;;;;;4993207;28;20129;-60
2021/01/12 09:55:20;;;;;;;14.63;2.30;;;;;;;;;;4996401;28;20439;-60
2021/01/12 09:57:47;;;;;;;14.50;2.25;;;;;;;;;;4994785;28;20034;-60
2021/01/12 10:00:14;;;;;;;23.48;2.42;;;;;;;;;;4993962;28;20033;-60
2021/01/12 10:02:40;;;;;;;18.17;2.13;;;;;;;;;;4996869;28;20045;-60
2021/01/12 10:05:06;;;;;;;15.40;2.50;;;;;;;;;;4994805;28;20399;-60
2021/01/12 10:07:32;;;;;;;19.48;2.47;;;;;;;;;;4997007;28;20062;-60
2021/01/12 10:09:58;;;;;;;14.20;2.60;;;;;;;;;;5000710;28;20034;-60
2021/01/12 10:12:24;;;;;;;19.92;2.83;;;;;;;;;;4995109;28;20034;-60
2021/01/12 10:14:50;;;;;;;13.98;2.53;;;;;;;;;;4995524;28;20096;-60
2021/01/12 10:17:16;;;;;;;16.10;2.70;;;;;;;;;;4992340;28;20062;-60
2021/01/12 10:19:42;;;;;;;18.00;2.70;;;;;;;;;;4991261;28;20143;-60
2021/01/12 10:22:08;;;;;;;27.85;2.22;;;;;;;;;;4994860;28;20120;-60
2021/01/12 10:24:34;;;;;;;18.83;2.45;;;;;;;;;;4991136;28;20058;-60
2021/01/12 10:27:00;;;;;;;13.85;2.63;;;;;;;;;;4994198;28;20030;-60
2021/01/12 10:29:27;;;;;;;11.48;2.10;;;;;;;;;;4990665;28;20121;-60
2021/01/12 10:31:53;;;;;;;10.02;1.90;;;;;;;;;;4990217;28;20030;-60
2021/01/12 10:34:20;;;;;;;8.25;2.00;;;;;;;;;;4990972;28;20091;-60
2021/01/12 10:36:50;;;;;;;12.10;2.75;;;;;;;;;;4991778;28;20157;-61
2021/01/12 10:39:16;;;;;;;9.68;2.20;;;;;;;;;;4995289;28;20652;-60
2021/01/12 10:41:42;;;;;;;10.30;1.75;;;;;;;;;;4990206;28;20038;-60
2021/01/12 10:44:08;;;;;;;12.25;2.00;;;;;;;;;;4993039;28;20510;-60
2021/01/12 10:46:34;;;;;;;11.40;2.53;;;;;;;;;;4993961;28;20038;-60
2021/01/12 10:49:00;;;;;;;8.73;2.10;;;;;;;;;;4982500;28;20034;-60
2021/01/12 10:51:26;;;;;;;12.15;1.67;;;;;;;;;;4982326;28;20511;-60
2021/01/12 10:53:52;;;;;;;12.95;2.33;;;;;;;;;;4994763;28;20043;-61
2021/01/12 10:56:18;;;;;;;9.35;2.10;;;;;;;;;;4989161;28;20077;-61
2021/01/12 10:58:44;;;;;;;12.50;2.17;;;;;;;;;;4988256;28;20046;-60
2021/01/12 11:01:14;;;;;;;9.32;2.00;;;;;;;;;;4986960;28;20042;-61
2021/01/12 11:03:40;;;;;;;12.05;2.00;;;;;;;;;;4988115;28;20034;-60
2021/01/12 11:06:06;;;;;;;11.60;1.95;;;;;;;;;;4991614;28;20120;-60
2021/01/12 11:08:32;;;;;;;11.77;1.80;;;;;;;;;;4979803;28;20049;-60
2021/01/12 11:11:01;;;;;;;10.68;1.98;;;;;;;;;;4986784;28;20046;-60
2021/01/12 11:13:27;;;;;;;12.57;1.98;;;;;;;;;;4993992;28;20027;-60
2021/01/12 11:15:56;;;;;;;7.60;2.55;;;;;;;;;;4983527;28;20379;-60
2021/01/12 11:18:22;;;;;;;11.38;2.35;;;;;;;;;;4989965;28;20565;-61
2021/01/12 11:20:48;;;;;;;7.15;1.90;;;;;;;;;;4988450;28;20052;-61
2021/01/12 11:23:14;;;;;;;9.05;1.70;;;;;;;;;;4981935;28;20034;-61
2021/01/12 11:25:41;;;;;;;9.48;1.60;;;;;;;;;;4989101;28;20042;-61
2021/01/12 11:28:07;;;;;;;5.25;1.23;;;;;;;;;;4987897;28;20034;-61
2021/01/12 11:30:33;;;;;;;5.25;1.35;;;;;;;;;;4983113;28;20108;-60
2021/01/12 11:32:59;;;;;;;4.32;0.95;;;;;;;;;;4986139;28;20229;-61
2021/01/12 11:35:25;;;;;;;9.68;1.20;;;;;;;;;;4987522;28;20041;-61
2021/01/12 11:37:51;;;;;;;5.22;0.98;;;;;;;;;;4990590;28;20072;-61
2021/01/12 11:40:17;;;;;;;2.92;0.93;;;;;;;;;;4989630;28;20484;-61
2021/01/12 11:42:43;;;;;;;6.80;1.33;;;;;;;;;;4983440;28;20514;-62
2021/01/12 11:45:10;;;;;;;7.10;1.23;;;11.00;68.50;;;;;;4988381;28;20041;-61
2021/01/12 11:47:36;;;;;;;5.45;0.90;;;17.80;47.50;;;;;;4989830;28;20553;-61
2021/01/12 11:50:07;;;;;;;7.20;1.08;;;18.30;46.20;;;;;;4985158;28;20050;-61
2021/01/12 11:52:33;;;;;;;3.38;1.05;;;18.80;45.00;;;;;;4984908;28;20129;-61
2021/01/12 11:54:59;;;;;;;7.22;1.15;;;19.20;44.20;;;;;;4983991;28;20030;-62
2021/01/12 11:57:24;;;;;;;6.68;1.25;;;19.60;42.50;;;;;;4992105;28;20065;-61
2021/01/12 11:59:50;;;;;;;7.10;1.33;;;20.00;41.70;;;;;;4984004;28;20063;-62
2021/01/12 12:02:15;;;;;;;4.47;0.90;;;20.30;40.30;;;;;;4980080;28;20124;-62
2021/01/12 12:04:41;;;;;;;6.43;1.40;;;20.60;39.40;;;;;;4981892;28;20038;-61
2021/01/12 12:07:07;;;;;;;3.10;0.93;;;20.70;38.80;;;;;;4978533;28;20357;-62
2021/01/12 12:09:34;;;;;;;8.75;1.17;;;20.90;38.30;;;;;;4977345;28;20103;-62
2021/01/12 12:12:01;;;;;;;6.40;1.02;;;21.10;37.40;;;;;;4980003;28;20038;-61
2021/01/12 12:14:27;;;;;;;7.40;1.00;;;21.20;36.90;;;;;;4980351;28;20464;-61
2021/01/12 12:16:54;;;;;;;9.20;1.40;;;21.30;36.80;;;;;;4979809;28;20478;-61
2021/01/12 12:19:21;;;;;;;2.20;0.70;;;21.40;36.20;;;;;;4983033;28;20072;-61
2021/01/12 12:21:54;;;;;;;3.88;0.90;;;21.50;35.60;;;;;;4993454;28;20038;-62
2021/01/12 12:24:21;;;;;;;5.18;0.85;;;21.40;35.10;;;;;;4987832;28;20065;-62
2021/01/12 12:26:48;;;;;;;3.72;0.88;;;21.20;35.10;;;;;;4986601;28;20034;-61
2021/01/12 12:29:14;;;;;;;5.13;1.08;;;21.10;35.40;;;;;;4989764;28;20435;-62
2021/01/12 12:31:40;;;;;;;7.07;1.13;;;21.00;35.10;;;;;;4986753;28;20038;-61
2021/01/12 12:34:06;;;;;;;5.85;0.90;;;21.00;35.30;;;;;;4990114;28;20045;-64
2021/01/12 12:36:32;;;;;;;5.15;1.20;;;20.70;35.40;;;;;;4989629;28;20042;-62
2021/01/12 12:38:58;;;;;;;7.57;1.20;;;20.40;35.30;;;;;;4980732;28;20026;-62
2021/01/12 12:41:24;;;;;;;9.05;1.40;;;20.00;35.60;;;;;;4990768;28;20580;-62
2021/01/12 12:43:50;;;;;;;5.25;1.10;;;19.40;36.00;;;;;;4987433;28;20503;-62
2021/01/12 12:46:18;;;;;;;3.75;1.00;;;18.50;36.90;;;;;;4988716;28;20121;-61
2021/01/12 12:48:45;;;;;;;12.63;1.73;;;;;;;;;;4989263;28;20042;-62
2021/01/12 12:51:14;;;;;;;5.65;1.23;;;;;;;;;;4984233;28;20073;-62
2021/01/12 12:53:41;;;;;;;6.35;1.15;;;17.60;38.00;;;;;;4985333;28;20610;-62
2021/01/12 12:56:11;;;;;;;3.40;1.48;;;15.40;41.60;;;;;;4987011;28;20033;-62
2021/01/12 12:58:37;;;;;;;8.35;0.93;;;14.70;42.60;;;;;;4984611;28;20041;-61
2021/01/12 13:01:03;;;;;;;6.43;1.15;;;14.20;43.60;;;;;;4980463;28;20118;-61
2021/01/12 13:03:29;;;;;;;7.13;1.23;;;;;;;;;;4986848;28;20046;-61
2021/01/12 13:05:55;;;;;;;8.77;1.10;;;;;;;;;;4987074;28;20040;-61
2021/01/12 13:08:21;;;;;;;5.70;0.95;;;;;;;;;;4988818;28;20522;-61
2021/01/12 13:10:49;;;;;;;6.88;0.77;;;;;;;;;;4983710;28;20668;-61
2021/01/12 13:13:16;;;;;;;5.38;1.05;;;;;;;;;;4991716;28;20040;-61
2021/01/12 13:15:42;;;;;;;3.22;0.70;;;;;;;;;;4993532;28;20030;-61
2021/01/12 13:18:12;;;;;;;6.88;1.10;;;13.80;44.40;;;;;;4989246;28;20046;-61
2021/01/12 13:20:39;;;;;;;7.68;1.48;;;12.50;48.40;;;;;;4987580;28;20038;-61
2021/01/12 13:23:08;;;;;;;4.20;1.23;;;12.50;48.60;;;;;;4984607;28;20069;-61
2021/01/12 13:25:35;;;;;;;6.70;1.08;;;12.40;49.00;;;;;;4981971;28;20132;-61
2021/01/12 13:28:01;;;;;;;8.88;1.35;;;12.50;49.10;;;;;;4991521;28;20056;-62
2021/01/12 13:30:27;;;;;;;10.27;1.23;;;12.40;49.20;;;;;;4989282;28;20045;-62
2021/01/12 13:32:53;;;;;;;11.07;1.50;;;12.20;49.40;;;;;;4982786;28;20046;-61
2021/01/12 13:35:21;;;;;;;5.07;1.10;;;12.10;49.70;;;;;;4985491;28;20646;-61
2021/01/12 13:37:47;;;;;;;13.02;1.40;;;11.90;50.70;;;;;;4987570;28;20042;-62
2021/01/12 13:40:14;;;;;;;4.22;1.00;;;11.70;50.40;;;;;;4987709;28;20077;-61
2021/01/12 13:42:47;;;;;;;7.72;1.30;;;11.60;50.70;;;;;;4985570;28;20042;-60
2021/01/12 13:45:15;;;;;;;6.65;1.05;;;11.40;51.10;;;;;;4986951;28;20037;-62
2021/01/12 13:47:41;;;;;;;7.93;1.45;;;;;;;;;;4986581;28;20038;-61
2021/01/12 13:50:07;;;;;;;3.42;1.20;;;;;;;;;;4990155;28;20395;-62
2021/01/12 13:52:33;;;;;;;9.18;2.10;;;;;;;;;;4986673;28;20440;-62
2021/01/12 13:55:00;;;;;;;13.52;1.48;;;;;;;;;;4993820;28;20030;-61
2021/01/12 13:57:27;;;;;;;8.07;1.20;;;;;;;;;;4991799;28;20074;-62
2021/01/12 13:59:55;;;;;;;7.35;1.30;;;;;;;;;;4989345;28;20041;-60
2021/01/12 14:02:22;;;;;;;5.70;1.27;;;;;;;;;;4990098;28;20042;-61
2021/01/12 14:04:48;;;;;;;6.75;1.30;;;;;;;;;;4984489;28;20483;-60
2021/01/12 14:07:15;;;;;;;6.13;0.95;;;;;;;;;;4987078;28;20124;-60
2021/01/12 14:09:41;;;;;;;3.75;1.15;;;;;;;;;;4979908;28;20125;-61
2021/01/12 14:12:07;;;;;;;4.68;1.05;;;;;;;;;;4979751;28;20038;-61